createdAt,value
2017-10-14T00:00:21.798Z,92.20
2017-10-14T00:02:48.259Z,92.20
2017-10-14T00:05:15.490Z,92.30
2017-10-14T00:07:41.954Z,92.30
2017-10-14T00:10:08.402Z,92.30
2017-10-14T00:12:34.915Z,92.40
2017-10-14T00:15:01.352Z,91.90
2017-10-14T00:17:27.794Z,91.80
2017-10-14T00:19:54.229Z,91.90
2017-10-14T00:22:21.427Z,91.60
2017-10-14T00:24:47.883Z,91.60
2017-10-14T00:27:14.310Z,91.60
2017-10-14T00:29:40.780Z,91.70
2017-10-14T00:32:07.953Z,92.20
2017-10-14T00:34:34.418Z,92.20
2017-10-14T00:37:00.870Z,92.00
2017-10-14T00:39:27.351Z,92.00
2017-10-14T00:41:53.825Z,91.70
2017-10-14T00:44:20.353Z,91.50
2017-10-14T00:46:46.869Z,91.60
2017-10-14T00:49:13.334Z,92.30
2017-10-14T00:51:39.813Z,92.60
2017-10-14T00:54:06.266Z,92.40
2017-10-14T00:56:32.761Z,92.70
2017-10-14T00:59:00.023Z,93.40
2017-10-14T01:01:26.562Z,93.40
2017-10-14T01:03:53.053Z,94.10
2017-10-14T01:06:19.572Z,93.30
2017-10-14T01:08:46.100Z,93.00
2017-10-14T01:11:12.581Z,93.60
2017-10-14T01:13:39.748Z,93.20
2017-10-14T01:16:06.971Z,93.80
2017-10-14T01:18:34.365Z,93.40
2017-10-14T01:21:00.848Z,93.40
2017-10-14T01:23:27.337Z,94.90
2017-10-14T01:25:53.800Z,94.40
2017-10-14T01:28:20.298Z,94.90
2017-10-14T01:30:46.840Z,93.80
2017-10-14T01:33:14.217Z,93.80
2017-10-14T01:35:40.738Z,93.80
2017-10-14T01:38:07.228Z,94.10
2017-10-14T01:40:34.457Z,94.10
2017-10-14T01:43:01.837Z,93.80
2017-10-14T01:45:29.120Z,94.40
2017-10-14T01:47:55.690Z,94.10
2017-10-14T01:50:22.224Z,93.90
2017-10-14T01:52:48.752Z,93.80
2017-10-14T01:55:15.272Z,93.70
2017-10-14T01:57:41.773Z,94.00
2017-10-14T02:00:08.281Z,93.60
2017-10-14T02:02:35.513Z,94.10
2017-10-14T02:05:02.047Z,94.10
2017-10-14T02:07:28.510Z,94.80
2017-10-14T02:09:55.728Z,94.80
2017-10-14T02:12:22.218Z,94.80
2017-10-14T02:14:48.675Z,94.70
2017-10-14T02:17:15.113Z,94.20
2017-10-14T02:19:41.538Z,94.40
2017-10-14T02:22:08.014Z,94.20
2017-10-14T02:24:35.212Z,94.50
2017-10-14T02:27:01.726Z,94.50
2017-10-14T02:29:28.289Z,94.80
2017-10-14T02:31:54.755Z,94.60
2017-10-14T02:34:21.243Z,94.50
2017-10-14T02:36:47.737Z,94.30
2017-10-14T02:39:14.226Z,94.10
2017-10-14T02:41:40.649Z,94.30
2017-10-14T02:44:07.197Z,94.20
2017-10-14T02:46:33.713Z,93.90
2017-10-14T02:49:00.872Z,93.40
2017-10-14T02:51:27.348Z,93.40
2017-10-14T02:53:53.803Z,93.50
2017-10-14T02:56:20.254Z,94.50
2017-10-14T02:58:46.699Z,94.90
2017-10-14T03:01:13.875Z,94.80
2017-10-14T03:03:40.389Z,94.70
2017-10-14T03:06:06.835Z,94.80
2017-10-14T03:08:34.113Z,94.60
2017-10-14T03:11:00.614Z,94.90
2017-10-14T03:13:27.075Z,95.20
2017-10-14T03:15:53.680Z,95.80
2017-10-14T03:18:20.512Z,96.40
2017-10-14T03:20:47.681Z,95.50
2017-10-14T03:23:14.195Z,95.50
2017-10-14T03:25:41.337Z,95.00
2017-10-14T03:28:07.783Z,94.90
2017-10-14T03:30:34.986Z,94.00
2017-10-14T03:33:01.433Z,94.00
2017-10-14T03:35:27.870Z,93.70
2017-10-14T03:37:54.310Z,93.60
2017-10-14T03:40:20.754Z,93.70
2017-10-14T03:42:48.003Z,93.20
2017-10-14T03:45:14.510Z,93.10
2017-10-14T03:47:41.717Z,94.00
2017-10-14T03:50:08.185Z,94.00
2017-10-14T03:52:34.619Z,93.70
2017-10-14T03:55:01.190Z,94.30
2017-10-14T03:57:27.657Z,94.60
2017-10-14T03:59:54.108Z,95.10
2017-10-14T04:02:20.600Z,95.00
2017-10-14T04:04:47.154Z,96.40
2017-10-14T04:07:13.580Z,97.60
2017-10-14T04:09:40.749Z,98.30
2017-10-14T04:12:07.234Z,98.30
2017-10-14T04:14:33.739Z,98.60
2017-10-14T04:17:00.325Z,98.50
2017-10-14T04:19:27.487Z,99.40
2017-10-14T04:21:53.926Z,99.40
2017-10-14T04:24:20.948Z,99.80
2017-10-14T04:26:47.417Z,99.10
2017-10-14T04:29:13.857Z,99.00
2017-10-14T04:31:40.273Z,99.10
2017-10-14T04:34:06.762Z,98.50
2017-10-14T04:36:33.210Z,97.70
2017-10-14T04:38:59.655Z,97.10
2017-10-14T04:41:26.822Z,96.30
2017-10-14T04:43:53.289Z,96.30
2017-10-14T04:46:19.753Z,96.70
2017-10-14T04:48:46.223Z,96.90
2017-10-14T04:51:12.670Z,97.30
2017-10-14T04:53:39.139Z,97.40
2017-10-14T04:56:05.587Z,97.10
2017-10-14T04:58:32.836Z,96.40
2017-10-14T05:01:00.072Z,96.60
2017-10-14T05:03:26.521Z,96.60
2017-10-14T05:05:53.099Z,96.50
2017-10-14T05:08:19.626Z,96.60
2017-10-14T05:10:46.134Z,96.10
2017-10-14T05:13:13.351Z,96.20
2017-10-14T05:15:39.806Z,95.90
2017-10-14T05:18:06.266Z,96.10
2017-10-14T05:20:32.715Z,95.60
2017-10-14T05:22:59.140Z,95.40
2017-10-14T05:25:25.595Z,95.10
2017-10-14T05:27:52.070Z,95.40
2017-10-14T05:30:19.268Z,96.30
2017-10-14T05:32:45.731Z,96.20
2017-10-14T05:35:12.201Z,96.70
2017-10-14T05:37:38.652Z,97.10
2017-10-14T05:40:05.890Z,97.30
2017-10-14T05:42:33.081Z,97.20
2017-10-14T05:44:59.518Z,97.20
2017-10-14T05:47:26.010Z,97.30
2017-10-14T05:49:52.571Z,97.10
2017-10-14T05:52:19.005Z,97.00
2017-10-14T05:54:45.421Z,96.40
2017-10-14T05:57:12.641Z,95.70
2017-10-14T05:59:39.154Z,95.70
2017-10-14T06:02:05.662Z,97.20
2017-10-14T06:04:32.161Z,97.20
2017-10-14T06:06:59.406Z,97.70
2017-10-14T06:09:25.883Z,97.60
2017-10-14T06:11:53.335Z,98.00
2017-10-14T06:14:19.781Z,98.10
2017-10-14T06:16:46.228Z,98.00
2017-10-14T06:19:12.756Z,98.10
2017-10-14T06:21:39.252Z,98.30
2017-10-14T06:24:06.458Z,98.30
2017-10-14T06:26:33.048Z,98.30
2017-10-14T06:28:59.549Z,97.70
2017-10-14T06:31:25.962Z,97.10
2017-10-14T06:33:53.177Z,96.40
2017-10-14T06:36:19.626Z,96.40
2017-10-14T06:38:46.069Z,95.70
2017-10-14T06:41:12.601Z,95.20
2017-10-14T06:43:39.781Z,94.90
2017-10-14T06:46:06.227Z,94.90
2017-10-14T06:48:32.785Z,95.10
2017-10-14T06:50:59.250Z,93.00
2017-10-14T06:53:25.785Z,92.40
2017-10-14T06:55:52.222Z,90.90
2017-10-14T06:58:18.688Z,90.00
2017-10-14T07:00:45.932Z,89.90
2017-10-14T07:03:12.371Z,89.90
2017-10-14T07:05:39.586Z,88.20
2017-10-14T07:08:06.037Z,88.10
2017-10-14T07:10:33.262Z,84.90
2017-10-14T07:12:59.707Z,84.90
2017-10-14T07:15:26.230Z,83.10
2017-10-14T07:17:52.720Z,83.90
2017-10-14T07:20:19.305Z,83.10
2017-10-14T07:22:45.919Z,83.20
2017-10-14T07:25:12.412Z,83.50
2017-10-14T07:27:38.891Z,85.50
2017-10-14T07:30:05.401Z,84.60
2017-10-14T07:32:31.850Z,84.60
2017-10-14T07:34:59.140Z,84.00
2017-10-14T07:37:25.662Z,84.00
2017-10-14T07:39:52.136Z,84.50
2017-10-14T07:42:18.657Z,84.70
2017-10-14T07:44:45.142Z,83.20
2017-10-14T07:47:11.656Z,81.50
2017-10-14T07:49:38.849Z,75.70
2017-10-14T07:52:05.367Z,75.60
2017-10-14T07:54:32.640Z,68.20
2017-10-14T07:56:59.103Z,67.40
2017-10-14T07:59:25.562Z,67.50
2017-10-14T08:01:52.002Z,64.30
2017-10-14T08:04:18.469Z,63.20
2017-10-14T08:06:44.963Z,61.30
2017-10-14T08:09:12.241Z,59.10
2017-10-14T08:11:38.765Z,59.20
2017-10-14T08:14:07.273Z,56.20
2017-10-14T08:16:33.844Z,53.30
2017-10-14T08:19:00.365Z,52.00
2017-10-14T08:21:26.819Z,53.70
2017-10-14T08:23:54.072Z,50.80
2017-10-14T08:26:21.258Z,49.70
2017-10-14T08:28:47.748Z,49.70
2017-10-14T08:31:14.990Z,47.80
2017-10-14T08:33:41.449Z,47.60
2017-10-14T08:36:07.895Z,47.70
2017-10-14T08:38:34.389Z,45.90
2017-10-14T08:41:01.770Z,45.70
2017-10-14T08:43:28.217Z,45.70
2017-10-14T08:45:55.429Z,43.90
2017-10-14T08:48:21.863Z,43.80
2017-10-14T08:50:48.391Z,43.60
2017-10-14T08:53:14.830Z,42.90
2017-10-14T08:55:41.290Z,41.70
2017-10-14T08:58:08.494Z,39.30
2017-10-14T09:00:34.948Z,39.20
2017-10-14T09:03:01.461Z,39.70
2017-10-14T09:05:27.911Z,38.10
2017-10-14T09:07:54.360Z,36.30
2017-10-14T09:10:20.858Z,37.70
2017-10-14T09:12:47.348Z,37.30
2017-10-14T09:15:14.598Z,36.50
2017-10-14T09:17:41.166Z,36.50
2017-10-14T09:20:07.613Z,36.60
2017-10-14T09:22:34.049Z,35.30
2017-10-14T09:25:00.579Z,34.50
2017-10-14T09:27:27.066Z,35.30
2017-10-14T09:29:54.376Z,35.80
2017-10-14T09:32:20.947Z,35.70
2017-10-14T09:34:48.153Z,35.60
2017-10-14T09:37:14.750Z,35.60
2017-10-14T09:39:41.970Z,36.00
2017-10-14T09:42:08.403Z,35.90
2017-10-14T09:44:34.889Z,36.40
2017-10-14T09:47:01.326Z,36.10
2017-10-14T09:49:27.798Z,36.60
2017-10-14T09:51:54.249Z,36.20
2017-10-14T09:54:20.824Z,36.50
2017-10-14T09:56:47.267Z,37.10
2017-10-14T09:59:13.727Z,36.70
2017-10-14T10:01:40.212Z,35.50
2017-10-14T10:04:06.710Z,35.70
2017-10-14T10:06:33.170Z,35.80
2017-10-14T10:09:00.422Z,36.00
2017-10-14T10:11:27.631Z,35.20
2017-10-14T10:13:54.084Z,35.20
2017-10-14T10:16:20.526Z,34.40
2017-10-14T10:18:47.025Z,35.10
2017-10-14T10:21:13.468Z,34.90
2017-10-14T10:23:39.938Z,33.40
2017-10-14T10:26:06.373Z,34.20
2017-10-14T10:28:33.653Z,35.10
2017-10-14T10:31:00.112Z,35.10
2017-10-14T10:33:26.571Z,35.00
2017-10-14T10:35:53.060Z,33.70
2017-10-14T10:38:19.547Z,34.50
2017-10-14T10:40:46.079Z,34.60
2017-10-14T10:43:12.530Z,33.80
2017-10-14T10:45:39.723Z,32.40
2017-10-14T10:48:06.210Z,32.40
2017-10-14T10:50:33.382Z,33.90
2017-10-14T10:53:00.871Z,34.00
2017-10-14T10:55:27.321Z,34.10
2017-10-14T10:57:53.843Z,34.70
2017-10-14T11:00:20.293Z,36.50
2017-10-14T11:02:47.486Z,40.20
2017-10-14T11:05:13.942Z,40.10
2017-10-14T11:07:40.394Z,40.20
2017-10-14T11:10:06.874Z,40.80
2017-10-14T11:12:33.309Z,42.80
2017-10-14T11:14:59.815Z,43.20
2017-10-14T11:17:26.290Z,43.50
2017-10-14T11:19:52.761Z,43.20
2017-10-14T11:22:19.205Z,44.10
2017-10-14T11:24:46.406Z,44.60
2017-10-14T11:27:12.863Z,44.50
2017-10-14T11:29:39.317Z,45.50
2017-10-14T11:32:05.776Z,45.50
2017-10-14T11:34:32.219Z,46.50
2017-10-14T11:36:58.643Z,47.20
2017-10-14T11:39:25.093Z,46.90
2017-10-14T11:41:52.269Z,47.10
2017-10-14T11:44:19.347Z,47.10
2017-10-14T11:46:45.815Z,47.40
2017-10-14T11:49:12.370Z,47.70
2017-10-14T11:51:38.851Z,48.70
2017-10-14T11:54:05.306Z,48.20
2017-10-14T11:56:32.711Z,48.30
2017-10-14T11:59:00.298Z,48.50
2017-10-14T12:01:27.473Z,48.90
2017-10-14T12:03:53.937Z,48.90
2017-10-14T12:06:21.121Z,48.90
2017-10-14T12:08:47.587Z,48.90
2017-10-14T12:11:14.087Z,48.60
2017-10-14T12:13:40.564Z,49.30
2017-10-14T12:16:07.082Z,49.90
2017-10-14T12:18:33.541Z,49.10
2017-10-14T12:20:59.960Z,49.80
2017-10-14T12:23:26.408Z,49.90
2017-10-14T12:25:53.635Z,48.60
2017-10-14T12:28:20.173Z,48.60
2017-10-14T12:30:47.476Z,50.10
2017-10-14T12:33:13.927Z,50.00
2017-10-14T12:35:40.368Z,49.80
2017-10-14T12:38:06.797Z,49.70
2017-10-14T12:40:33.295Z,48.60
2017-10-14T12:43:00.522Z,49.40
2017-10-14T12:45:27.096Z,49.30
2017-10-14T12:47:53.590Z,49.70
2017-10-14T12:50:20.778Z,48.40
2017-10-14T12:52:47.228Z,48.30
2017-10-14T12:55:13.686Z,48.40
2017-10-14T12:57:40.914Z,48.10
2017-10-14T13:00:07.398Z,48.00
2017-10-14T13:02:34.634Z,47.40
2017-10-14T13:05:01.158Z,47.30
2017-10-14T13:07:27.610Z,46.40
2017-10-14T13:09:54.051Z,46.30
2017-10-14T13:12:21.271Z,44.20
2017-10-14T13:14:47.725Z,44.20
2017-10-14T13:17:14.170Z,42.80
2017-10-14T13:19:41.366Z,42.60
2017-10-14T13:22:07.865Z,42.50
2017-10-14T13:24:34.330Z,43.20
2017-10-14T13:27:00.794Z,44.00
2017-10-14T13:29:27.234Z,45.70
2017-10-14T13:31:53.703Z,45.90
2017-10-14T13:34:20.942Z,46.50
2017-10-14T13:36:48.107Z,44.80
2017-10-14T13:39:15.370Z,44.20
2017-10-14T13:41:41.810Z,44.20
2017-10-14T13:44:08.301Z,43.10
2017-10-14T13:46:34.758Z,42.90
2017-10-14T13:49:01.243Z,43.70
2017-10-14T13:51:27.679Z,43.60
2017-10-14T13:53:54.125Z,43.60
2017-10-14T13:56:20.669Z,44.30
2017-10-14T13:58:47.927Z,44.30
2017-10-14T14:01:14.402Z,44.20
2017-10-14T14:03:40.862Z,43.90
2017-10-14T14:06:07.334Z,45.00
2017-10-14T14:08:33.813Z,45.40
2017-10-14T14:11:01.006Z,45.90
2017-10-14T14:13:27.458Z,45.90
2017-10-14T14:15:53.914Z,46.90
2017-10-14T14:18:20.406Z,47.00
2017-10-14T14:20:46.858Z,46.30
2017-10-14T14:23:14.055Z,46.90
2017-10-14T14:25:40.556Z,46.90
2017-10-14T14:28:07.022Z,47.20
2017-10-14T14:30:33.535Z,46.90
2017-10-14T14:33:00.042Z,46.40
2017-10-14T14:35:27.291Z,47.40
2017-10-14T14:37:54.528Z,47.70
2017-10-14T14:40:21.030Z,47.70
2017-10-14T14:42:47.476Z,46.90
2017-10-14T14:45:13.930Z,46.20
2017-10-14T14:47:40.389Z,46.60
2017-10-14T14:50:06.823Z,46.80
2017-10-14T14:52:34.114Z,48.90
2017-10-14T14:55:00.562Z,48.90
2017-10-14T14:57:27.791Z,50.00
2017-10-14T14:59:54.290Z,50.00
2017-10-14T15:02:20.771Z,51.40
2017-10-14T15:04:47.249Z,53.80
2017-10-14T15:07:14.437Z,55.10
2017-10-14T15:09:40.904Z,55.10
2017-10-14T15:12:07.364Z,55.00
2017-10-14T15:14:34.550Z,56.30
2017-10-14T15:17:01.033Z,56.30
2017-10-14T15:19:27.468Z,57.00
2017-10-14T15:21:53.980Z,57.20
2017-10-14T15:24:20.449Z,58.00
2017-10-14T15:26:46.935Z,58.20
2017-10-14T15:29:13.373Z,58.70
2017-10-14T15:31:39.861Z,59.30
2017-10-14T15:34:07.090Z,60.20
2017-10-14T15:36:34.316Z,61.80
2017-10-14T15:39:00.822Z,61.80
2017-10-14T15:41:27.297Z,62.00
2017-10-14T15:43:54.511Z,63.30
2017-10-14T15:46:20.982Z,63.20
2017-10-14T15:48:47.422Z,63.90
2017-10-14T15:51:13.863Z,64.80
2017-10-14T15:53:40.307Z,64.90
2017-10-14T15:56:07.534Z,65.90
2017-10-14T15:58:34.001Z,65.90
2017-10-14T16:01:00.455Z,66.50
2017-10-14T16:03:26.899Z,66.60
2017-10-14T16:05:53.353Z,67.10
2017-10-14T16:08:19.811Z,67.40
2017-10-14T16:10:46.246Z,67.30
2017-10-14T16:13:12.711Z,67.20
2017-10-14T16:15:39.190Z,68.00
2017-10-14T16:18:05.671Z,69.20
2017-10-14T16:20:32.143Z,68.40
2017-10-14T16:22:59.394Z,69.20
2017-10-14T16:25:25.907Z,69.20
2017-10-14T16:27:52.410Z,69.40
2017-10-14T16:30:19.604Z,69.80
2017-10-14T16:32:46.100Z,69.80
2017-10-14T16:35:12.556Z,70.60
2017-10-14T16:37:39.021Z,70.60
2017-10-14T16:40:05.465Z,71.20
2017-10-14T16:42:31.925Z,71.90
2017-10-14T16:44:58.383Z,72.60
2017-10-14T16:47:24.918Z,72.80
2017-10-14T16:49:51.402Z,73.20
2017-10-14T16:52:17.867Z,73.20
2017-10-14T16:54:45.096Z,72.80
2017-10-14T16:57:12.285Z,74.10
2017-10-14T16:59:38.827Z,74.00
2017-10-14T17:02:05.313Z,74.90
2017-10-14T17:04:31.782Z,75.30
2017-10-14T17:06:58.230Z,75.70
2017-10-14T17:09:24.730Z,76.10
2017-10-14T17:11:51.924Z,76.70
2017-10-14T17:14:18.403Z,76.60
2017-10-14T17:16:44.893Z,77.10
2017-10-14T17:19:11.378Z,78.10
2017-10-14T17:21:37.824Z,77.70
2017-10-14T17:24:05.178Z,78.20
2017-10-14T17:26:31.675Z,78.40
2017-10-14T17:28:58.084Z,78.40
2017-10-14T17:31:24.565Z,78.40
2017-10-14T17:33:51.850Z,78.90
2017-10-14T17:36:18.312Z,78.80
2017-10-14T17:38:44.790Z,78.90
2017-10-14T17:41:12.022Z,78.50
2017-10-14T17:43:38.450Z,78.50
2017-10-14T17:46:04.928Z,78.30
2017-10-14T17:48:31.393Z,78.50
2017-10-14T17:50:57.874Z,79.30
2017-10-14T17:53:25.074Z,78.80
2017-10-14T17:55:53.050Z,79.00
2017-10-14T17:58:19.536Z,78.80
2017-10-14T18:00:46.026Z,78.80
2017-10-14T18:03:13.206Z,78.60
2017-10-14T18:05:39.709Z,78.60
2017-10-14T18:08:06.926Z,79.10
2017-10-14T18:10:33.406Z,79.10
2017-10-14T18:12:59.863Z,79.00
2017-10-14T18:15:27.044Z,79.20
2017-10-14T18:17:53.569Z,79.10
2017-10-14T18:20:20.740Z,79.20
2017-10-14T18:22:47.218Z,79.20
2017-10-14T18:25:13.671Z,79.30
2017-10-14T18:27:40.959Z,78.90
2017-10-14T18:30:07.574Z,78.80
2017-10-14T18:32:34.061Z,78.80
2017-10-14T18:35:00.519Z,78.70
2017-10-14T18:37:27.012Z,79.40
2017-10-14T18:39:53.454Z,80.30
2017-10-14T18:42:19.904Z,80.30
2017-10-14T18:44:46.355Z,80.40
2017-10-14T18:47:13.559Z,80.20
2017-10-14T18:49:39.997Z,80.10
2017-10-14T18:52:06.419Z,80.50
2017-10-14T18:54:32.903Z,80.20
2017-10-14T18:56:59.339Z,80.30
2017-10-14T18:59:25.829Z,80.50
2017-10-14T19:01:52.269Z,80.50
2017-10-14T19:04:18.863Z,80.90
2017-10-14T19:06:45.358Z,80.70
2017-10-14T19:09:11.818Z,81.50
2017-10-14T19:11:39.017Z,82.00
2017-10-14T19:14:05.509Z,81.80
2017-10-14T19:16:32.001Z,81.70
2017-10-14T19:18:58.460Z,82.10
2017-10-14T19:21:24.927Z,82.00
2017-10-14T19:23:51.402Z,81.80
2017-10-14T19:26:17.856Z,81.80
2017-10-14T19:28:44.330Z,81.50
2017-10-14T19:31:10.779Z,81.20
2017-10-14T19:33:37.230Z,81.00
2017-10-14T19:36:03.681Z,80.90
2017-10-14T19:38:30.141Z,80.90
2017-10-14T19:40:56.590Z,81.00
2017-10-14T19:43:23.015Z,81.20
2017-10-14T19:45:49.532Z,80.70
2017-10-14T19:48:16.744Z,81.00
2017-10-14T19:50:43.181Z,80.90
2017-10-14T19:53:09.663Z,80.70
2017-10-14T19:55:36.917Z,82.00
2017-10-14T19:58:03.369Z,82.00
2017-10-14T20:00:29.869Z,81.50
2017-10-14T20:02:57.201Z,84.10
2017-10-14T20:05:23.681Z,83.40
2017-10-14T20:07:50.180Z,82.70
2017-10-14T20:10:16.797Z,82.10
2017-10-14T20:12:43.388Z,83.10
2017-10-14T20:15:09.827Z,83.90
2017-10-14T20:17:36.286Z,83.80
2017-10-14T20:20:02.788Z,84.70
2017-10-14T20:22:29.207Z,83.80
2017-10-14T20:24:55.683Z,83.80
2017-10-14T20:27:22.203Z,83.60
2017-10-14T20:29:48.653Z,84.30
2017-10-14T20:32:15.108Z,84.80
2017-10-14T20:34:42.314Z,85.50
2017-10-14T20:37:08.751Z,85.50
2017-10-14T20:39:35.207Z,85.30
2017-10-14T20:42:01.656Z,85.10
2017-10-14T20:44:28.262Z,85.60
2017-10-14T20:46:54.732Z,85.00
2017-10-14T20:49:21.249Z,85.80
2017-10-14T20:51:47.685Z,86.30
2017-10-14T20:54:14.176Z,87.20
2017-10-14T20:56:40.694Z,88.00
2017-10-14T20:59:07.166Z,87.80
2017-10-14T21:01:33.670Z,87.90
2017-10-14T21:04:00.130Z,86.70
2017-10-14T21:06:26.687Z,87.00
2017-10-14T21:08:53.149Z,87.80
2017-10-14T21:11:19.709Z,87.10
2017-10-14T21:13:46.214Z,87.70
2017-10-14T21:16:12.830Z,88.40
2017-10-14T21:18:39.337Z,88.80
2017-10-14T21:21:05.834Z,87.90
2017-10-14T21:23:33.028Z,88.90
2017-10-14T21:25:59.568Z,88.90
2017-10-14T21:28:26.032Z,89.70
2017-10-14T21:30:53.267Z,88.70
2017-10-14T21:33:19.766Z,88.70
2017-10-14T21:35:46.249Z,89.40
2017-10-14T21:38:12.717Z,88.40
2017-10-14T21:40:39.921Z,89.10
2017-10-14T21:43:06.426Z,89.10
2017-10-14T21:45:32.970Z,89.80
2017-10-14T21:47:59.439Z,88.50
2017-10-14T21:50:26.670Z,90.00
2017-10-14T21:52:53.170Z,90.00
2017-10-14T21:55:19.658Z,90.00
2017-10-14T21:57:46.094Z,89.70
2017-10-14T22:00:12.628Z,90.10
2017-10-14T22:02:40.567Z,90.10
2017-10-14T22:05:07.100Z,90.10
2017-10-14T22:07:33.561Z,90.10
2017-10-14T22:10:00.082Z,89.10
2017-10-14T22:12:27.377Z,88.20
2017-10-14T22:14:54.566Z,88.40
2017-10-14T22:17:21.067Z,87.50
2017-10-14T22:19:47.607Z,87.60
2017-10-14T22:22:14.062Z,86.90
2017-10-14T22:24:40.506Z,87.30
2017-10-14T22:27:07.042Z,87.80
2017-10-14T22:29:33.471Z,87.80
2017-10-14T22:31:59.941Z,87.30
2017-10-14T22:34:26.387Z,87.80
2017-10-14T22:36:53.578Z,88.00
2017-10-14T22:39:20.014Z,88.10
2017-10-14T22:41:46.493Z,88.50
2017-10-14T22:44:12.966Z,88.90
2017-10-14T22:46:39.449Z,89.20
2017-10-14T22:49:05.975Z,88.80
2017-10-14T22:51:32.446Z,89.20
2017-10-14T22:53:59.651Z,90.90
2017-10-14T22:56:26.091Z,90.80
2017-10-14T22:58:52.554Z,90.60
2017-10-14T23:01:19.828Z,90.90
2017-10-14T23:03:46.404Z,90.90
2017-10-14T23:06:12.893Z,91.00
2017-10-14T23:08:40.143Z,91.90
2017-10-14T23:11:07.379Z,90.80
2017-10-14T23:13:34.570Z,91.00
2017-10-14T23:16:00.978Z,90.90
2017-10-14T23:18:27.492Z,90.90
2017-10-14T23:20:53.906Z,91.50
2017-10-14T23:23:21.144Z,93.10
2017-10-14T23:25:47.623Z,93.10
2017-10-14T23:28:14.856Z,92.20
2017-10-14T23:30:42.078Z,93.30
2017-10-14T23:33:08.589Z,93.30
2017-10-14T23:35:35.071Z,92.30
2017-10-14T23:38:01.509Z,92.20
2017-10-14T23:40:28.008Z,92.30
2017-10-14T23:42:54.417Z,91.30
2017-10-14T23:45:21.566Z,91.10
2017-10-14T23:47:48.082Z,91.10
2017-10-14T23:50:14.563Z,91.20
2017-10-14T23:52:41.021Z,91.20
2017-10-14T23:55:07.443Z,91.50
2017-10-14T23:57:33.913Z,91.70
